Tavda, Russia
Current Conditions -  °F | °C
As of 6:30 PM on Friday 31 Oct 2014 (Local Time) from USTR Reporting Station
Overcast Overcast  
Wind Chill: 31°   Ceiling: 2000
Heat Index: 39°   Visibility: 6mi
Dew Point: 37°   Wind: 13mph
Humidity: 93%   Direction: 240°WSW
Pressure: 29.97"   Gusts: NA
Location:  58.05°N, 65.26°E
Report Text: USTR 311330Z 24006MPS 9999 BKN020CB OVC070 04/03 Q1015 NOSIGRMK QFE751/1002 21290060 12290060
Loading
Personal Weather Stations






























Interactive Weather Map
Tropical Storm Tracking
New forecast layout! Learn more

10-Day Weather Forecast

Advertisements
Track Severe Weather on mobile